sensor_id;sensor_type;location;lat;lon;timestamp;temperature;humidity
41447;DHT22;27185;52.040;4.490;2022-10-31T00:02:12;13.40;99.90
41447;DHT22;27185;52.040;4.490;2022-10-31T00:04:57;13.30;99.90
41447;DHT22;27185;52.040;4.490;2022-10-31T00:07:43;13.30;99.90
41447;DHT22;27185;52.040;4.490;2022-10-31T00:10:28;13.30;99.90
41447;DHT22;27185;52.040;4.490;2022-10-31T00:13:14;13.30;99.90
41447;DHT22;27185;52.040;4.490;2022-10-31T00:16:00;13.30;99.90
41447;DHT22;27185;52.040;4.490;2022-10-31T00:18:53;13.30;99.90
41447;DHT22;27185;52.040;4.490;2022-10-31T00:21:39;13.30;99.90
41447;DHT22;27185;52.040;4.490;2022-10-31T00:24:24;13.40;99.90
41447;DHT22;27185;52.040;4.490;2022-10-31T00:27:10;13.30;99.90
41447;DHT22;27185;52.040;4.490;2022-10-31T00:29:56;13.30;99.90
41447;DHT22;27185;52.040;4.490;2022-10-31T00:32:41;13.30;99.90
41447;DHT22;27185;52.040;4.490;2022-10-31T00:35:27;13.30;99.90
41447;DHT22;27185;52.040;4.490;2022-10-31T00:38:12;13.30;99.90
41447;DHT22;27185;52.040;4.490;2022-10-31T00:40:58;13.20;99.90
41447;DHT22;27185;52.040;4.490;2022-10-31T00:43:43;13.20;99.90
41447;DHT22;27185;52.040;4.490;2022-10-31T00:46:29;13.10;99.90
41447;DHT22;27185;52.040;4.490;2022-10-31T00:49:14;13.10;99.90
41447;DHT22;27185;52.040;4.490;2022-10-31T00:52:00;13.00;99.90
41447;DHT22;27185;52.040;4.490;2022-10-31T00:54:45;12.90;99.90
41447;DHT22;27185;52.040;4.490;2022-10-31T00:57:31;12.90;99.90
41447;DHT22;27185;52.040;4.490;2022-10-31T01:00:17;12.80;99.90
41447;DHT22;27185;52.040;4.490;2022-10-31T01:03:02;12.80;99.90
41447;DHT22;27185;52.040;4.490;2022-10-31T01:06:06;12.70;99.90
41447;DHT22;27185;52.040;4.490;2022-10-31T01:08:52;12.60;99.90
41447;DHT22;27185;52.040;4.490;2022-10-31T01:11:37;12.60;99.90
41447;DHT22;27185;52.040;4.490;2022-10-31T01:14:23;12.50;99.90
41447;DHT22;27185;52.040;4.490;2022-10-31T01:17:08;12.50;99.90
41447;DHT22;27185;52.040;4.490;2022-10-31T01:19:54;12.40;99.90
41447;DHT22;27185;52.040;4.490;2022-10-31T01:22:39;12.40;99.90
41447;DHT22;27185;52.040;4.490;2022-10-31T01:25:25;12.40;99.90
41447;DHT22;27185;52.040;4.490;2022-10-31T01:28:10;12.30;99.90
41447;DHT22;27185;52.040;4.490;2022-10-31T01:31:00;12.30;99.90
41447;DHT22;27185;52.040;4.490;2022-10-31T01:33:46;12.20;99.90
41447;DHT22;27185;52.040;4.490;2022-10-31T01:36:41;12.20;99.90
41447;DHT22;27185;52.040;4.490;2022-10-31T01:39:27;12.20;99.90
41447;DHT22;27185;52.040;4.490;2022-10-31T01:42:18;12.10;99.90
41447;DHT22;27185;52.040;4.490;2022-10-31T01:45:05;12.10;99.90
41447;DHT22;27185;52.040;4.490;2022-10-31T01:47:51;12.10;99.90
41447;DHT22;27185;52.040;4.490;2022-10-31T01:50:38;12.00;99.90
41447;DHT22;27185;52.040;4.490;2022-10-31T01:53:24;12.00;99.90
41447;DHT22;27185;52.040;4.490;2022-10-31T01:56:10;12.00;99.90
41447;DHT22;27185;52.040;4.490;2022-10-31T01:58:57;12.00;99.90
41447;DHT22;27185;52.040;4.490;2022-10-31T02:01:46;11.90;99.90
41447;DHT22;27185;52.040;4.490;2022-10-31T02:04:34;11.90;99.90
41447;DHT22;27185;52.040;4.490;2022-10-31T02:10:37;11.90;99.90
41447;DHT22;27185;52.040;4.490;2022-10-31T02:13:24;11.80;99.90
41447;DHT22;27185;52.040;4.490;2022-10-31T02:16:10;11.70;99.90
41447;DHT22;27185;52.040;4.490;2022-10-31T02:18:56;11.70;99.90
41447;DHT22;27185;52.040;4.490;2022-10-31T02:21:59;11.70;99.90
41447;DHT22;27185;52.040;4.490;2022-10-31T02:30:51;11.60;99.90
41447;DHT22;27185;52.040;4.490;2022-10-31T02:33:52;11.50;99.90
41447;DHT22;27185;52.040;4.490;2022-10-31T02:43:12;11.40;99.90
41447;DHT22;27185;52.040;4.490;2022-10-31T02:48:55;11.40;99.90
41447;DHT22;27185;52.040;4.490;2022-10-31T02:51:43;11.30;99.90
41447;DHT22;27185;52.040;4.490;2022-10-31T02:54:29;11.30;99.90
41447;DHT22;27185;52.040;4.490;2022-10-31T02:57:20;11.20;99.90
41447;DHT22;27185;52.040;4.490;2022-10-31T03:00:08;11.30;99.90
41447;DHT22;27185;52.040;4.490;2022-10-31T03:03:14;11.20;99.90
41447;DHT22;27185;52.040;4.490;2022-10-31T03:06:30;11.20;99.90
41447;DHT22;27185;52.040;4.490;2022-10-31T03:09:42;11.20;99.90
41447;DHT22;27185;52.040;4.490;2022-10-31T03:12:37;11.10;99.90
41447;DHT22;27185;52.040;4.490;2022-10-31T03:15:44;11.10;99.90
41447;DHT22;27185;52.040;4.490;2022-10-31T03:18:34;11.10;99.90
41447;DHT22;27185;52.040;4.490;2022-10-31T03:21:26;11.00;99.90
41447;DHT22;27185;52.040;4.490;2022-10-31T03:24:13;11.00;99.90
41447;DHT22;27185;52.040;4.490;2022-10-31T03:27:00;11.00;99.90
41447;DHT22;27185;52.040;4.490;2022-10-31T03:29:47;11.00;99.90
41447;DHT22;27185;52.040;4.490;2022-10-31T03:32:51;11.00;99.90
41447;DHT22;27185;52.040;4.490;2022-10-31T03:35:40;11.10;99.90
41447;DHT22;27185;52.040;4.490;2022-10-31T03:38:27;11.10;99.90
41447;DHT22;27185;52.040;4.490;2022-10-31T03:41:18;11.10;99.90
41447;DHT22;27185;52.040;4.490;2022-10-31T03:44:08;11.20;99.90
41447;DHT22;27185;52.040;4.490;2022-10-31T03:46:56;11.20;99.90
41447;DHT22;27185;52.040;4.490;2022-10-31T03:49:42;11.30;99.90
41447;DHT22;27185;52.040;4.490;2022-10-31T03:55:25;11.40;99.90
41447;DHT22;27185;52.040;4.490;2022-10-31T03:58:24;11.40;99.90
41447;DHT22;27185;52.040;4.490;2022-10-31T04:01:12;11.40;99.90
41447;DHT22;27185;52.040;4.490;2022-10-31T04:04:01;11.50;99.90
41447;DHT22;27185;52.040;4.490;2022-10-31T04:06:48;11.50;99.90
41447;DHT22;27185;52.040;4.490;2022-10-31T04:09:37;11.50;99.90
41447;DHT22;27185;52.040;4.490;2022-10-31T04:12:24;11.60;99.90
41447;DHT22;27185;52.040;4.490;2022-10-31T04:15:11;11.60;99.90
41447;DHT22;27185;52.040;4.490;2022-10-31T04:17:58;11.60;99.90
41447;DHT22;27185;52.040;4.490;2022-10-31T04:20:44;11.60;99.90
41447;DHT22;27185;52.040;4.490;2022-10-31T04:23:35;11.60;99.90
41447;DHT22;27185;52.040;4.490;2022-10-31T04:26:22;11.60;99.90
41447;DHT22;27185;52.040;4.490;2022-10-31T04:29:07;11.70;99.90
41447;DHT22;27185;52.040;4.490;2022-10-31T04:31:53;11.60;99.90
41447;DHT22;27185;52.040;4.490;2022-10-31T04:34:39;11.60;99.90
41447;DHT22;27185;52.040;4.490;2022-10-31T04:37:25;11.60;99.90
41447;DHT22;27185;52.040;4.490;2022-10-31T04:40:11;11.60;99.90
41447;DHT22;27185;52.040;4.490;2022-10-31T04:42:56;11.50;99.90
41447;DHT22;27185;52.040;4.490;2022-10-31T04:45:42;11.50;99.90
41447;DHT22;27185;52.040;4.490;2022-10-31T04:48:28;11.40;99.90
41447;DHT22;27185;52.040;4.490;2022-10-31T04:51:14;11.40;99.90
41447;DHT22;27185;52.040;4.490;2022-10-31T04:53:59;11.40;99.90
41447;DHT22;27185;52.040;4.490;2022-10-31T04:56:45;11.30;99.90
41447;DHT22;27185;52.040;4.490;2022-10-31T04:59:31;11.30;99.90
41447;DHT22;27185;52.040;4.490;2022-10-31T05:02:17;11.20;99.90
41447;DHT22;27185;52.040;4.490;2022-10-31T05:05:03;11.20;99.90
41447;DHT22;27185;52.040;4.490;2022-10-31T05:07:52;11.20;99.90
41447;DHT22;27185;52.040;4.490;2022-10-31T05:10:38;11.10;99.90
41447;DHT22;27185;52.040;4.490;2022-10-31T05:13:23;11.10;99.90
41447;DHT22;27185;52.040;4.490;2022-10-31T05:16:09;11.10;99.90
41447;DHT22;27185;52.040;4.490;2022-10-31T05:18:55;11.10;99.90
41447;DHT22;27185;52.040;4.490;2022-10-31T05:21:40;11.00;99.90
41447;DHT22;27185;52.040;4.490;2022-10-31T05:24:26;11.00;99.90
41447;DHT22;27185;52.040;4.490;2022-10-31T05:27:12;11.00;99.90
41447;DHT22;27185;52.040;4.490;2022-10-31T05:29:57;11.00;99.90
41447;DHT22;27185;52.040;4.490;2022-10-31T05:32:45;11.00;99.90
41447;DHT22;27185;52.040;4.490;2022-10-31T05:35:32;11.00;99.90
41447;DHT22;27185;52.040;4.490;2022-10-31T05:38:17;11.00;99.90
41447;DHT22;27185;52.040;4.490;2022-10-31T05:41:03;11.10;99.90
41447;DHT22;27185;52.040;4.490;2022-10-31T05:43:49;11.10;99.90
41447;DHT22;27185;52.040;4.490;2022-10-31T05:46:34;11.10;99.90
41447;DHT22;27185;52.040;4.490;2022-10-31T05:49:20;11.10;99.90
41447;DHT22;27185;52.040;4.490;2022-10-31T05:52:06;11.00;99.90
41447;DHT22;27185;52.040;4.490;2022-10-31T05:54:51;11.00;99.90
41447;DHT22;27185;52.040;4.490;2022-10-31T05:57:37;11.00;99.90
41447;DHT22;27185;52.040;4.490;2022-10-31T06:00:24;11.00;99.90
41447;DHT22;27185;52.040;4.490;2022-10-31T06:03:12;11.00;99.90
41447;DHT22;27185;52.040;4.490;2022-10-31T06:05:58;11.00;99.90
41447;DHT22;27185;52.040;4.490;2022-10-31T06:08:43;11.00;99.90
41447;DHT22;27185;52.040;4.490;2022-10-31T06:11:29;11.00;99.90
41447;DHT22;27185;52.040;4.490;2022-10-31T06:14:15;11.10;99.90
41447;DHT22;27185;52.040;4.490;2022-10-31T06:17:00;11.10;99.90
41447;DHT22;27185;52.040;4.490;2022-10-31T06:19:46;11.10;99.90
41447;DHT22;27185;52.040;4.490;2022-10-31T06:22:32;11.10;99.90
41447;DHT22;27185;52.040;4.490;2022-10-31T06:25:18;11.10;99.90
41447;DHT22;27185;52.040;4.490;2022-10-31T06:28:05;11.20;99.90
41447;DHT22;27185;52.040;4.490;2022-10-31T06:30:50;11.10;99.90
41447;DHT22;27185;52.040;4.490;2022-10-31T06:33:36;11.10;99.90
41447;DHT22;27185;52.040;4.490;2022-10-31T06:36:22;11.10;99.90
41447;DHT22;27185;52.040;4.490;2022-10-31T06:39:07;11.10;99.90
41447;DHT22;27185;52.040;4.490;2022-10-31T06:41:53;11.10;99.90
41447;DHT22;27185;52.040;4.490;2022-10-31T06:44:38;11.20;99.90
41447;DHT22;27185;52.040;4.490;2022-10-31T06:47:24;11.20;99.90
41447;DHT22;27185;52.040;4.490;2022-10-31T06:50:10;11.20;99.90
41447;DHT22;27185;52.040;4.490;2022-10-31T06:52:58;11.20;99.90
41447;DHT22;27185;52.040;4.490;2022-10-31T06:55:44;11.20;99.90
41447;DHT22;27185;52.040;4.490;2022-10-31T06:58:29;11.20;99.90
41447;DHT22;27185;52.040;4.490;2022-10-31T07:01:15;11.30;99.90
41447;DHT22;27185;52.040;4.490;2022-10-31T07:04:01;11.30;99.90
41447;DHT22;27185;52.040;4.490;2022-10-31T07:06:47;11.30;99.90
41447;DHT22;27185;52.040;4.490;2022-10-31T07:09:32;11.30;99.90
41447;DHT22;27185;52.040;4.490;2022-10-31T07:12:18;11.40;99.90
41447;DHT22;27185;52.040;4.490;2022-10-31T07:15:04;11.40;99.90
41447;DHT22;27185;52.040;4.490;2022-10-31T07:17:50;11.50;99.90
41447;DHT22;27185;52.040;4.490;2022-10-31T07:20:36;11.50;99.90
41447;DHT22;27185;52.040;4.490;2022-10-31T07:23:22;11.50;99.90
41447;DHT22;27185;52.040;4.490;2022-10-31T07:26:09;11.50;99.90
41447;DHT22;27185;52.040;4.490;2022-10-31T07:28:55;11.60;99.90
41447;DHT22;27185;52.040;4.490;2022-10-31T07:31:41;11.70;99.90
41447;DHT22;27185;52.040;4.490;2022-10-31T07:34:26;11.70;99.90
41447;DHT22;27185;52.040;4.490;2022-10-31T07:37:12;11.80;99.90
41447;DHT22;27185;52.040;4.490;2022-10-31T07:39:58;11.80;99.90
41447;DHT22;27185;52.040;4.490;2022-10-31T07:42:48;11.90;99.90
41447;DHT22;27185;52.040;4.490;2022-10-31T07:45:34;11.90;99.90
41447;DHT22;27185;52.040;4.490;2022-10-31T07:48:20;12.00;99.90
41447;DHT22;27185;52.040;4.490;2022-10-31T07:51:05;12.00;99.90
41447;DHT22;27185;52.040;4.490;2022-10-31T07:53:52;12.00;99.90
41447;DHT22;27185;52.040;4.490;2022-10-31T07:56:37;12.10;99.90
41447;DHT22;27185;52.040;4.490;2022-10-31T07:59:23;12.10;99.90
41447;DHT22;27185;52.040;4.490;2022-10-31T08:02:09;12.20;99.90
41447;DHT22;27185;52.040;4.490;2022-10-31T08:05:00;12.20;99.90
41447;DHT22;27185;52.040;4.490;2022-10-31T08:07:47;12.20;99.90
41447;DHT22;27185;52.040;4.490;2022-10-31T08:10:33;12.30;99.90
41447;DHT22;27185;52.040;4.490;2022-10-31T08:13:19;12.30;99.90
41447;DHT22;27185;52.040;4.490;2022-10-31T08:16:05;12.30;99.90
41447;DHT22;27185;52.040;4.490;2022-10-31T08:18:52;12.40;99.90
41447;DHT22;27185;52.040;4.490;2022-10-31T08:21:40;12.50;99.90
41447;DHT22;27185;52.040;4.490;2022-10-31T08:24:26;12.50;99.90
41447;DHT22;27185;52.040;4.490;2022-10-31T08:27:12;12.60;99.90
41447;DHT22;27185;52.040;4.490;2022-10-31T08:29:58;12.80;99.90
41447;DHT22;27185;52.040;4.490;2022-10-31T08:32:43;12.80;99.90
41447;DHT22;27185;52.040;4.490;2022-10-31T08:35:29;13.00;99.90
41447;DHT22;27185;52.040;4.490;2022-10-31T08:38:15;13.00;99.90
41447;DHT22;27185;52.040;4.490;2022-10-31T08:41:01;13.20;99.90
41447;DHT22;27185;52.040;4.490;2022-10-31T08:43:46;13.30;99.90
41447;DHT22;27185;52.040;4.490;2022-10-31T08:46:32;13.40;99.90
41447;DHT22;27185;52.040;4.490;2022-10-31T08:49:18;13.60;99.90
41447;DHT22;27185;52.040;4.490;2022-10-31T08:52:03;13.70;99.90
41447;DHT22;27185;52.040;4.490;2022-10-31T08:54:49;13.80;99.90
41447;DHT22;27185;52.040;4.490;2022-10-31T08:57:34;14.00;99.90
41447;DHT22;27185;52.040;4.490;2022-10-31T09:00:20;14.10;99.90
41447;DHT22;27185;52.040;4.490;2022-10-31T09:03:10;14.20;99.90
41447;DHT22;27185;52.040;4.490;2022-10-31T09:05:58;14.30;99.90
41447;DHT22;27185;52.040;4.490;2022-10-31T09:08:44;14.40;99.90
41447;DHT22;27185;52.040;4.490;2022-10-31T09:11:30;14.60;99.90
41447;DHT22;27185;52.040;4.490;2022-10-31T09:14:16;14.60;99.90
41447;DHT22;27185;52.040;4.490;2022-10-31T09:17:02;14.60;99.90
41447;DHT22;27185;52.040;4.490;2022-10-31T09:19:47;14.70;99.90
41447;DHT22;27185;52.040;4.490;2022-10-31T09:22:33;14.70;99.90
41447;DHT22;27185;52.040;4.490;2022-10-31T09:25:18;14.80;99.90
41447;DHT22;27185;52.040;4.490;2022-10-31T09:28:06;14.90;99.90
41447;DHT22;27185;52.040;4.490;2022-10-31T09:30:53;15.00;99.90
41447;DHT22;27185;52.040;4.490;2022-10-31T09:33:39;15.00;99.90
41447;DHT22;27185;52.040;4.490;2022-10-31T09:36:24;15.00;99.90
41447;DHT22;27185;52.040;4.490;2022-10-31T09:39:10;15.10;99.90
41447;DHT22;27185;52.040;4.490;2022-10-31T09:42:10;15.20;99.90
41447;DHT22;27185;52.040;4.490;2022-10-31T09:51:37;15.50;99.90
41447;DHT22;27185;52.040;4.490;2022-10-31T09:54:44;15.60;99.90
41447;DHT22;27185;52.040;4.490;2022-10-31T09:57:36;15.70;99.90
41447;DHT22;27185;52.040;4.490;2022-10-31T10:00:22;15.80;99.90
41447;DHT22;27185;52.040;4.490;2022-10-31T10:03:33;15.90;99.90
41447;DHT22;27185;52.040;4.490;2022-10-31T10:06:28;16.00;99.90
41447;DHT22;27185;52.040;4.490;2022-10-31T10:09:15;16.00;99.90
41447;DHT22;27185;52.040;4.490;2022-10-31T10:12:19;16.10;99.90
41447;DHT22;27185;52.040;4.490;2022-10-31T10:15:34;16.20;99.90
41447;DHT22;27185;52.040;4.490;2022-10-31T10:30:50;16.40;99.90
41447;DHT22;27185;52.040;4.490;2022-10-31T10:33:46;16.50;99.90
41447;DHT22;27185;52.040;4.490;2022-10-31T10:39:41;16.70;99.90
41447;DHT22;27185;52.040;4.490;2022-10-31T10:42:28;16.80;99.90
41447;DHT22;27185;52.040;4.490;2022-10-31T10:45:32;17.00;99.90
41447;DHT22;27185;52.040;4.490;2022-10-31T10:48:58;17.20;99.90
41447;DHT22;27185;52.040;4.490;2022-10-31T10:52:00;17.30;99.90
41447;DHT22;27185;52.040;4.490;2022-10-31T10:58:18;17.50;99.90
41447;DHT22;27185;52.040;4.490;2022-10-31T11:01:12;17.50;99.90
41447;DHT22;27185;52.040;4.490;2022-10-31T11:03:58;17.60;99.90
41447;DHT22;27185;52.040;4.490;2022-10-31T11:06:43;17.60;99.90
41447;DHT22;27185;52.040;4.490;2022-10-31T11:09:30;17.70;99.90
41447;DHT22;27185;52.040;4.490;2022-10-31T11:12:27;17.80;99.90
41447;DHT22;27185;52.040;4.490;2022-10-31T11:15:23;17.90;99.90
41447;DHT22;27185;52.040;4.490;2022-10-31T11:18:19;18.10;99.90
41447;DHT22;27185;52.040;4.490;2022-10-31T11:21:09;18.30;99.90
41447;DHT22;27185;52.040;4.490;2022-10-31T11:27:26;18.60;99.90
41447;DHT22;27185;52.040;4.490;2022-10-31T11:30:13;18.80;99.90
41447;DHT22;27185;52.040;4.490;2022-10-31T11:32:59;18.90;99.90
41447;DHT22;27185;52.040;4.490;2022-10-31T11:35:45;19.00;99.90
41447;DHT22;27185;52.040;4.490;2022-10-31T11:38:40;19.10;99.90
41447;DHT22;27185;52.040;4.490;2022-10-31T11:41:33;19.10;99.90
41447;DHT22;27185;52.040;4.490;2022-10-31T11:44:22;19.10;99.90
41447;DHT22;27185;52.040;4.490;2022-10-31T11:47:13;19.10;99.90
41447;DHT22;27185;52.040;4.490;2022-10-31T11:50:11;19.10;99.90
41447;DHT22;27185;52.040;4.490;2022-10-31T11:53:03;19.10;99.90
41447;DHT22;27185;52.040;4.490;2022-10-31T11:56:04;19.00;99.90
41447;DHT22;27185;52.040;4.490;2022-10-31T11:59:03;19.00;99.90
41447;DHT22;27185;52.040;4.490;2022-10-31T12:01:50;19.10;99.90
41447;DHT22;27185;52.040;4.490;2022-10-31T12:04:44;19.10;99.90
41447;DHT22;27185;52.040;4.490;2022-10-31T12:07:31;19.10;99.90
41447;DHT22;27185;52.040;4.490;2022-10-31T12:10:19;19.10;99.90
41447;DHT22;27185;52.040;4.490;2022-10-31T12:13:30;19.10;99.90
41447;DHT22;27185;52.040;4.490;2022-10-31T12:19:42;19.30;99.90
41447;DHT22;27185;52.040;4.490;2022-10-31T12:35:43;20.10;99.90
41447;DHT22;27185;52.040;4.490;2022-10-31T12:54:15;21.50;99.90
41447;DHT22;27185;52.040;4.490;2022-10-31T12:57:07;21.60;99.90
41447;DHT22;27185;52.040;4.490;2022-10-31T13:00:18;21.60;99.90
41447;DHT22;27185;52.040;4.490;2022-10-31T13:06:14;21.50;99.90
41447;DHT22;27185;52.040;4.490;2022-10-31T13:09:07;21.30;99.90
41447;DHT22;27185;52.040;4.490;2022-10-31T13:11:58;21.10;99.90
41447;DHT22;27185;52.040;4.490;2022-10-31T13:14:52;20.90;99.90
41447;DHT22;27185;52.040;4.490;2022-10-31T13:17:44;20.80;99.90
41447;DHT22;27185;52.040;4.490;2022-10-31T13:20:34;20.60;99.90
41447;DHT22;27185;52.040;4.490;2022-10-31T13:23:28;20.50;99.90
41447;DHT22;27185;52.040;4.490;2022-10-31T13:26:36;20.40;99.90
41447;DHT22;27185;52.040;4.490;2022-10-31T13:32:11;20.20;99.90
41447;DHT22;27185;52.040;4.490;2022-10-31T13:34:58;20.10;99.90
41447;DHT22;27185;52.040;4.490;2022-10-31T13:38:05;20.10;99.90
41447;DHT22;27185;52.040;4.490;2022-10-31T13:41:20;19.90;99.90
41447;DHT22;27185;52.040;4.490;2022-10-31T13:44:26;19.90;99.90
41447;DHT22;27185;52.040;4.490;2022-10-31T13:47:29;19.90;99.90
41447;DHT22;27185;52.040;4.490;2022-10-31T13:53:21;19.70;99.90
41447;DHT22;27185;52.040;4.490;2022-10-31T13:56:24;19.70;99.90
41447;DHT22;27185;52.040;4.490;2022-10-31T14:02:00;19.60;99.90
41447;DHT22;27185;52.040;4.490;2022-10-31T14:04:52;19.50;99.90
41447;DHT22;27185;52.040;4.490;2022-10-31T14:07:43;19.50;99.90
41447;DHT22;27185;52.040;4.490;2022-10-31T14:10:38;19.40;99.90
41447;DHT22;27185;52.040;4.490;2022-10-31T14:16:42;19.30;99.90
41447;DHT22;27185;52.040;4.490;2022-10-31T14:19:28;19.30;99.90
41447;DHT22;27185;52.040;4.490;2022-10-31T14:22:21;19.20;99.90
41447;DHT22;27185;52.040;4.490;2022-10-31T14:25:32;19.20;99.90
41447;DHT22;27185;52.040;4.490;2022-10-31T14:28:31;19.20;99.90
41447;DHT22;27185;52.040;4.490;2022-10-31T14:31:36;19.20;99.90
41447;DHT22;27185;52.040;4.490;2022-10-31T14:34:34;19.10;99.90
41447;DHT22;27185;52.040;4.490;2022-10-31T14:40:27;19.10;99.90
41447;DHT22;27185;52.040;4.490;2022-10-31T14:52:36;19.00;99.90
41447;DHT22;27185;52.040;4.490;2022-10-31T14:55:23;19.00;99.90
41447;DHT22;27185;52.040;4.490;2022-10-31T14:58:13;19.00;99.90
41447;DHT22;27185;52.040;4.490;2022-10-31T15:01:00;19.00;99.90
41447;DHT22;27185;52.040;4.490;2022-10-31T15:03:47;18.90;99.90
41447;DHT22;27185;52.040;4.490;2022-10-31T15:06:41;18.90;99.90
41447;DHT22;27185;52.040;4.490;2022-10-31T15:09:37;18.90;99.90
41447;DHT22;27185;52.040;4.490;2022-10-31T15:12:30;18.90;99.90
41447;DHT22;27185;52.040;4.490;2022-10-31T15:15:24;18.80;99.90
41447;DHT22;27185;52.040;4.490;2022-10-31T15:18:21;18.80;99.90
41447;DHT22;27185;52.040;4.490;2022-10-31T15:21:07;18.70;99.90
41447;DHT22;27185;52.040;4.490;2022-10-31T15:23:54;18.70;99.90
41447;DHT22;27185;52.040;4.490;2022-10-31T15:26:43;18.60;99.90
41447;DHT22;27185;52.040;4.490;2022-10-31T15:29:29;18.60;99.90
41447;DHT22;27185;52.040;4.490;2022-10-31T15:32:21;18.60;99.90
41447;DHT22;27185;52.040;4.490;2022-10-31T15:35:09;18.50;99.90
41447;DHT22;27185;52.040;4.490;2022-10-31T15:37:56;18.50;99.90
41447;DHT22;27185;52.040;4.490;2022-10-31T15:40:52;18.40;99.90
41447;DHT22;27185;52.040;4.490;2022-10-31T15:43:40;18.40;99.90
41447;DHT22;27185;52.040;4.490;2022-10-31T15:46:29;18.40;99.90
41447;DHT22;27185;52.040;4.490;2022-10-31T15:49:32;18.40;99.90
41447;DHT22;27185;52.040;4.490;2022-10-31T15:52:43;18.40;99.90
41447;DHT22;27185;52.040;4.490;2022-10-31T15:55:34;18.30;99.90
41447;DHT22;27185;52.040;4.490;2022-10-31T15:58:22;18.30;99.90
41447;DHT22;27185;52.040;4.490;2022-10-31T16:01:24;18.20;99.90
41447;DHT22;27185;52.040;4.490;2022-10-31T16:07:12;18.20;99.90
41447;DHT22;27185;52.040;4.490;2022-10-31T16:10:00;18.10;99.90
41447;DHT22;27185;52.040;4.490;2022-10-31T16:12:46;18.10;99.90
41447;DHT22;27185;52.040;4.490;2022-10-31T16:15:31;18.10;99.90
41447;DHT22;27185;52.040;4.490;2022-10-31T16:18:18;18.10;99.90
41447;DHT22;27185;52.040;4.490;2022-10-31T16:21:04;18.10;99.90
41447;DHT22;27185;52.040;4.490;2022-10-31T16:23:54;18.10;99.90
41447;DHT22;27185;52.040;4.490;2022-10-31T16:26:41;18.00;99.90
41447;DHT22;27185;52.040;4.490;2022-10-31T16:29:41;18.00;99.90
41447;DHT22;27185;52.040;4.490;2022-10-31T16:35:38;17.90;99.90
41447;DHT22;27185;52.040;4.490;2022-10-31T16:38:24;17.90;99.90
41447;DHT22;27185;52.040;4.490;2022-10-31T16:41:10;17.90;99.90
41447;DHT22;27185;52.040;4.490;2022-10-31T16:44:00;17.90;99.90
41447;DHT22;27185;52.040;4.490;2022-10-31T16:46:47;17.80;99.90
41447;DHT22;27185;52.040;4.490;2022-10-31T16:49:32;17.90;99.90
41447;DHT22;27185;52.040;4.490;2022-10-31T16:52:18;17.90;99.90
41447;DHT22;27185;52.040;4.490;2022-10-31T16:55:04;17.90;99.90
41447;DHT22;27185;52.040;4.490;2022-10-31T16:57:52;17.90;99.90
41447;DHT22;27185;52.040;4.490;2022-10-31T17:00:38;17.80;99.90
41447;DHT22;27185;52.040;4.490;2022-10-31T17:03:24;17.80;99.90
41447;DHT22;27185;52.040;4.490;2022-10-31T17:06:13;17.80;99.90
41447;DHT22;27185;52.040;4.490;2022-10-31T17:08:59;17.80;99.90
41447;DHT22;27185;52.040;4.490;2022-10-31T17:11:47;17.80;99.90
41447;DHT22;27185;52.040;4.490;2022-10-31T17:14:34;17.70;99.90
41447;DHT22;27185;52.040;4.490;2022-10-31T17:17:20;17.70;99.90
41447;DHT22;27185;52.040;4.490;2022-10-31T17:20:25;17.60;99.90
41447;DHT22;27185;52.040;4.490;2022-10-31T17:23:12;17.60;99.90
41447;DHT22;27185;52.040;4.490;2022-10-31T17:25:59;17.50;99.90
41447;DHT22;27185;52.040;4.490;2022-10-31T17:28:44;17.40;99.90
41447;DHT22;27185;52.040;4.490;2022-10-31T17:31:31;17.30;99.90
41447;DHT22;27185;52.040;4.490;2022-10-31T17:34:17;17.20;99.90
41447;DHT22;27185;52.040;4.490;2022-10-31T17:37:03;17.10;99.90
41447;DHT22;27185;52.040;4.490;2022-10-31T17:39:49;17.10;99.90
41447;DHT22;27185;52.040;4.490;2022-10-31T17:42:34;17.00;99.90
41447;DHT22;27185;52.040;4.490;2022-10-31T17:45:21;16.90;99.90
41447;DHT22;27185;52.040;4.490;2022-10-31T17:48:10;16.90;99.90
41447;DHT22;27185;52.040;4.490;2022-10-31T17:50:59;16.80;99.90
41447;DHT22;27185;52.040;4.490;2022-10-31T17:53:45;16.70;99.90
41447;DHT22;27185;52.040;4.490;2022-10-31T17:56:31;16.60;99.90
41447;DHT22;27185;52.040;4.490;2022-10-31T17:59:16;16.60;99.90
41447;DHT22;27185;52.040;4.490;2022-10-31T18:02:02;16.50;99.90
41447;DHT22;27185;52.040;4.490;2022-10-31T18:04:52;16.50;99.90
41447;DHT22;27185;52.040;4.490;2022-10-31T18:07:38;16.40;99.90
41447;DHT22;27185;52.040;4.490;2022-10-31T18:10:24;16.40;99.90
41447;DHT22;27185;52.040;4.490;2022-10-31T18:13:13;16.30;99.90
41447;DHT22;27185;52.040;4.490;2022-10-31T18:15:59;16.30;99.90
41447;DHT22;27185;52.040;4.490;2022-10-31T18:18:49;16.30;99.90
41447;DHT22;27185;52.040;4.490;2022-10-31T18:21:35;16.30;99.90
41447;DHT22;27185;52.040;4.490;2022-10-31T18:24:21;16.20;99.90
41447;DHT22;27185;52.040;4.490;2022-10-31T18:27:07;16.20;99.90
41447;DHT22;27185;52.040;4.490;2022-10-31T18:29:52;16.20;99.90
41447;DHT22;27185;52.040;4.490;2022-10-31T18:32:38;16.20;99.90
41447;DHT22;27185;52.040;4.490;2022-10-31T18:35:24;16.20;99.90
41447;DHT22;27185;52.040;4.490;2022-10-31T18:38:10;16.20;99.90
41447;DHT22;27185;52.040;4.490;2022-10-31T18:40:56;16.20;99.90
41447;DHT22;27185;52.040;4.490;2022-10-31T18:43:42;16.20;99.90
41447;DHT22;27185;52.040;4.490;2022-10-31T18:46:27;16.20;99.90
41447;DHT22;27185;52.040;4.490;2022-10-31T18:49:14;16.10;99.90
41447;DHT22;27185;52.040;4.490;2022-10-31T18:52:07;16.10;99.90
41447;DHT22;27185;52.040;4.490;2022-10-31T18:54:52;16.10;99.90
41447;DHT22;27185;52.040;4.490;2022-10-31T18:57:39;16.10;99.90
41447;DHT22;27185;52.040;4.490;2022-10-31T19:00:24;16.10;99.90
41447;DHT22;27185;52.040;4.490;2022-10-31T19:03:13;16.10;99.90
41447;DHT22;27185;52.040;4.490;2022-10-31T19:06:03;16.10;99.90
41447;DHT22;27185;52.040;4.490;2022-10-31T19:08:49;16.00;99.90
41447;DHT22;27185;52.040;4.490;2022-10-31T19:11:40;16.00;99.90
41447;DHT22;27185;52.040;4.490;2022-10-31T19:14:26;16.00;99.90
41447;DHT22;27185;52.040;4.490;2022-10-31T19:17:12;15.90;99.90
41447;DHT22;27185;52.040;4.490;2022-10-31T19:19:57;15.90;99.90
41447;DHT22;27185;52.040;4.490;2022-10-31T19:22:43;15.90;99.90
41447;DHT22;27185;52.040;4.490;2022-10-31T19:25:29;15.90;99.90
41447;DHT22;27185;52.040;4.490;2022-10-31T19:28:14;15.80;99.90
41447;DHT22;27185;52.040;4.490;2022-10-31T19:31:00;15.80;99.90
41447;DHT22;27185;52.040;4.490;2022-10-31T19:33:47;15.80;99.90
41447;DHT22;27185;52.040;4.490;2022-10-31T19:36:32;15.70;99.90
41447;DHT22;27185;52.040;4.490;2022-10-31T19:39:20;15.70;99.90
41447;DHT22;27185;52.040;4.490;2022-10-31T19:42:09;15.70;99.90
41447;DHT22;27185;52.040;4.490;2022-10-31T19:44:54;15.70;99.90